KTUP

Tupelo Regional Airport

Airport
ICAO code
KTUP
Summary
ICAO Region
NAM
ICAO Territory
Location

Tupelo, Mississippi,

Coordinates
34° 15' 55" N , 88° 46' 3" W
KCC
Metar
KTUP 141853Z 24008G19KT 210V290 10SM CLR 28/11 A3007 RMK AO2 SLP177 T02780106 $

Description

Tupelo Regional Airport is a public use airport located 6 km west of the central business district of Tupelo, a city in Lee County, Mississippi.

Climatology

Humid “subtropical” climate (Köppen climate classification Cfa) - characterized by hot, humid summers and cool winters. Significant amounts of precipitation occur in all seasons in most areas. Winter rainfall (and sometimes snowfall) is associated with large storms that the westerlies steer from west to east. Most summer rainfall occurs during thunderstorms and occasional tropical storms (hurricanes).

Runways

Designator Length Width Surface Rops
18/36 1981 30 ASP Yes/Yes

Airport map

Aerial View

SKYbrary Partners:

Safety knowledge contributed by: